This is the latest recevied weather packets stored in our database for station/object LEAS. If no packets are shown the sender has not sent any weather packets the latest 1 day(s).
| Time | Temp. | Humidity | Pressure | Rain* | Wind** | Luminosity | Snow |
|---|---|---|---|---|---|---|---|
| 1778023805 | 11.11° C | 93% | 1016 hPa | - | 3.13 m/s, 0° | - | - |
| 1778022904 | 11.11° C | 93% | 1016 hPa | - | 3.13 m/s, 0° | - | - |
| 1778021104 | 12.22° C | 87% | 1016 hPa | - | 3.58 m/s, 240° | - | - |
| 1778019304 | 12.22° C | 93% | 1016 hPa | - | 2.68 m/s, 250° | - | - |
| 1778018406 | 12.22° C | 93% | 1016 hPa | - | 2.68 m/s, 270° | - | - |
| 1778014805 | 12.78° C | 82% | 1015 hPa | - | 3.58 m/s, 290° | - | - |
| 1778013903 | 12.78° C | 82% | 1015 hPa | - | 3.58 m/s, 290° | - | - |
| 1778013005 | 12.78° C | 76% | 1015 hPa | - | 3.13 m/s, 300° | - | - |
| 1778012104 | 12.78° C | 76% | 1015 hPa | - | 3.13 m/s, 300° | - | - |
| 1778009405 | 12.78° C | 82% | 1015 hPa | - | 3.58 m/s, 290° | - | - |
| 1778008504 | 12.78° C | 82% | 1015 hPa | - | 3.58 m/s, 290° | - | - |
| 1778007604 | 15° C | 72% | 1015 hPa | - | 3.13 m/s, 300° | - | - |
| 1778006703 | 15° C | 72% | 1015 hPa | - | 3.13 m/s, 300° | - | - |
| 1778004904 | 15° C | 76% | 1015 hPa | - | 3.13 m/s, 300° | - | - |
| 1778004005 | 15° C | 76% | 1015 hPa | - | 3.58 m/s, 300° | - | - |
| 1778003103 | 15° C | 76% | 1015 hPa | - | 3.58 m/s, 300° | - | - |
| 1778002204 | 15° C | 76% | 1015 hPa | - | 3.58 m/s, 310° | - | - |
| 1778000404 | 16.11° C | 77% | 1015 hPa | - | 4.02 m/s, 300° | - | - |
| 1777997704 | 15° C | 76% | 1015 hPa | - | 4.02 m/s, 0° | - | - |
| 1777996805 | 16.11° C | 77% | 1015 hPa | - | 6.26 m/s, 280° | - | - |
| 1777995004 | 16.11° C | 77% | 1015 hPa | - | 5.36 m/s, 310° | - | - |
| 1777994103 | 16.11° C | 77% | 1015 hPa | - | 5.36 m/s, 310° | - | - |
| 1777991404 | 15° C | 76% | 1015 hPa | - | 6.26 m/s, 300° | - | - |
| 1777990503 | 16.11° C | 72% | 1015 hPa | - | 5.36 m/s, 300° | - | - |
| 1777989604 | 16.11° C | 67% | 1014 hPa | - | 0.45 m/s, 300° | - | - |
* Rain since midnight (hover to see other rain measurements)
** Current wind speed in m/s (hover to see current wind gust speed)